sensor_id;sensor_type;location;lat;lon;timestamp;pressure;altitude;pressure_sealevel;temperature;humidity
26839;BME280;40088;51.214;6.786;2023-02-14T00:02:28;103196.94;;;16.83;49.78
26839;BME280;40088;51.214;6.786;2023-02-14T00:12:28;103205.19;;;16.83;49.74
26839;BME280;40088;51.214;6.786;2023-02-14T00:22:29;103195.19;;;16.82;49.79
26839;BME280;40088;51.214;6.786;2023-02-14T00:32:30;103190.72;;;16.81;49.76
26839;BME280;40088;51.214;6.786;2023-02-14T00:42:30;103190.72;;;16.81;49.77
26839;BME280;40088;51.214;6.786;2023-02-14T00:52:30;103187.09;;;16.80;49.67
26839;BME280;40088;51.214;6.786;2023-02-14T01:02:31;103189.84;;;16.80;49.60
26839;BME280;40088;51.214;6.786;2023-02-14T01:12:31;103201.72;;;16.81;49.48
26839;BME280;40088;51.214;6.786;2023-02-14T01:22:37;103201.72;;;16.81;49.59
26839;BME280;40088;51.214;6.786;2023-02-14T01:32:38;103194.44;;;16.80;49.50
26839;BME280;40088;51.214;6.786;2023-02-14T01:42:38;103192.72;;;16.79;49.61
26839;BME280;40088;51.214;6.786;2023-02-14T01:53:05;103183.56;;;16.78;49.47
26839;BME280;40088;51.214;6.786;2023-02-14T02:03:07;103178.06;;;16.78;49.33
26839;BME280;40088;51.214;6.786;2023-02-14T02:13:15;103165.16;;;16.79;49.15
26839;BME280;40088;51.214;6.786;2023-02-14T02:44:45;103154.16;;;16.79;49.08
26839;BME280;40088;51.214;6.786;2023-02-14T02:54:58;103147.78;;;16.78;49.17
26839;BME280;40088;51.214;6.786;2023-02-14T03:05:03;103147.94;;;16.77;49.26
26839;BME280;40088;51.214;6.786;2023-02-14T03:25:21;103151.69;;;16.76;49.20
26839;BME280;40088;51.214;6.786;2023-02-14T03:45:32;103161.69;;;16.77;48.92
26839;BME280;40088;51.214;6.786;2023-02-14T03:56:25;103156.19;;;16.77;48.95
26839;BME280;40088;51.214;6.786;2023-02-14T04:05:59;103157.06;;;16.77;48.99
26839;BME280;40088;51.214;6.786;2023-02-14T04:15:59;103157.94;;;16.78;48.72
26839;BME280;40088;51.214;6.786;2023-02-14T04:25:59;103151.56;;;16.77;48.86
26839;BME280;40088;51.214;6.786;2023-02-14T04:36:00;103148.78;;;16.77;48.92
26839;BME280;40088;51.214;6.786;2023-02-14T04:46:00;103136.91;;;16.77;48.87
26839;BME280;40088;51.214;6.786;2023-02-14T04:56:00;103130.41;;;16.78;48.95
26839;BME280;40088;51.214;6.786;2023-02-14T05:06:01;103127.63;;;16.78;48.96
26839;BME280;40088;51.214;6.786;2023-02-14T05:16:01;103119.38;;;16.78;48.78
26839;BME280;40088;51.214;6.786;2023-02-14T05:26:01;103114.75;;;16.78;48.76
26839;BME280;40088;51.214;6.786;2023-02-14T05:36:02;103103.88;;;16.77;48.70
26839;BME280;40088;51.214;6.786;2023-02-14T05:46:03;103100.09;;;16.78;48.66
26839;BME280;40088;51.214;6.786;2023-02-14T05:56:03;103100.09;;;16.78;48.71
26839;BME280;40088;51.214;6.786;2023-02-14T06:06:04;103101.84;;;16.79;48.79
26839;BME280;40088;51.214;6.786;2023-02-14T06:16:05;103108.38;;;16.78;48.69
26839;BME280;40088;51.214;6.786;2023-02-14T06:26:05;103105.63;;;16.78;48.70
26839;BME280;40088;51.214;6.786;2023-02-14T06:36:06;103122.13;;;16.78;48.58
26839;BME280;40088;51.214;6.786;2023-02-14T06:46:06;103136.75;;;16.78;48.75
26839;BME280;40088;51.214;6.786;2023-02-14T06:56:06;103130.41;;;16.78;48.78
26839;BME280;40088;51.214;6.786;2023-02-14T07:06:06;103131.25;;;16.78;48.69
26839;BME280;40088;51.214;6.786;2023-02-14T07:16:07;103133.00;;;16.79;48.46
26839;BME280;40088;51.214;6.786;2023-02-14T07:26:07;103131.13;;;16.80;48.52
26839;BME280;40088;51.214;6.786;2023-02-14T07:36:08;103128.34;;;16.80;48.45
26839;BME280;40088;51.214;6.786;2023-02-14T07:46:08;103123.88;;;16.79;48.48
26839;BME280;40088;51.214;6.786;2023-02-14T07:56:08;103124.88;;;16.78;48.62
26839;BME280;40088;51.214;6.786;2023-02-14T08:06:09;103133.00;;;16.79;48.33
26839;BME280;40088;51.214;6.786;2023-02-14T08:16:09;103126.50;;;16.80;48.13
26839;BME280;40088;51.214;6.786;2023-02-14T08:26:11;103134.78;;;16.80;48.38
26839;BME280;40088;51.214;6.786;2023-02-14T08:36:11;103129.38;;;16.79;48.67
26839;BME280;40088;51.214;6.786;2023-02-14T08:46:12;103129.25;;;16.80;48.46
26839;BME280;40088;51.214;6.786;2023-02-14T08:56:13;103134.78;;;16.80;48.46
26839;BME280;40088;51.214;6.786;2023-02-14T09:06:15;103127.50;;;16.79;48.54
26839;BME280;40088;51.214;6.786;2023-02-14T09:16:17;103122.84;;;16.80;48.56
26839;BME280;40088;51.214;6.786;2023-02-14T09:26:18;103110.84;;;16.81;48.58
26839;BME280;40088;51.214;6.786;2023-02-14T09:36:18;103092.56;;;16.80;48.54
26839;BME280;40088;51.214;6.786;2023-02-14T09:46:19;103099.84;;;16.81;48.73
26839;BME280;40088;51.214;6.786;2023-02-14T10:07:36;103086.94;;;16.81;48.56
26839;BME280;40088;51.214;6.786;2023-02-14T10:17:41;103085.19;;;16.80;48.88
26839;BME280;40088;51.214;6.786;2023-02-14T10:27:45;103085.94;;;16.82;48.75
26839;BME280;40088;51.214;6.786;2023-02-14T10:48:16;103059.25;;;16.83;48.83
26839;BME280;40088;51.214;6.786;2023-02-14T10:58:23;103053.59;;;16.84;48.80
26839;BME280;40088;51.214;6.786;2023-02-14T11:08:31;103044.47;;;16.84;48.87
26839;BME280;40088;51.214;6.786;2023-02-14T11:18:32;103041.72;;;16.84;49.06
26839;BME280;40088;51.214;6.786;2023-02-14T11:28:37;103030.69;;;16.84;49.08
26839;BME280;40088;51.214;6.786;2023-02-14T11:38:55;103014.19;;;16.84;49.20
26839;BME280;40088;51.214;6.786;2023-02-14T11:49:01;103000.28;;;16.85;49.21
26839;BME280;40088;51.214;6.786;2023-02-14T11:59:03;102988.38;;;16.85;49.05
26839;BME280;40088;51.214;6.786;2023-02-14T12:09:15;102982.00;;;16.84;49.15
26839;BME280;40088;51.214;6.786;2023-02-14T12:19:37;102965.38;;;16.86;49.38
26839;BME280;40088;51.214;6.786;2023-02-14T12:30:03;102933.31;;;16.85;49.27
26839;BME280;40088;51.214;6.786;2023-02-14T12:40:18;102934.06;;;16.87;49.40
26839;BME280;40088;51.214;6.786;2023-02-14T13:00:54;102898.25;;;16.87;49.29
26839;BME280;40088;51.214;6.786;2023-02-14T13:11:13;102887.25;;;16.87;49.50
26839;BME280;40088;51.214;6.786;2023-02-14T13:21:21;102880.72;;;16.88;49.55
26839;BME280;40088;51.214;6.786;2023-02-14T13:31:22;102863.16;;;16.89;49.38
26839;BME280;40088;51.214;6.786;2023-02-14T13:41:25;102855.78;;;16.89;49.37
26839;BME280;40088;51.214;6.786;2023-02-14T13:51:43;102843.91;;;16.89;49.52
26839;BME280;40088;51.214;6.786;2023-02-14T14:01:44;102837.53;;;16.88;49.67
26839;BME280;40088;51.214;6.786;2023-02-14T14:11:49;102827.38;;;16.89;49.57
26839;BME280;40088;51.214;6.786;2023-02-14T14:32:31;102810.84;;;16.89;49.58
26839;BME280;40088;51.214;6.786;2023-02-14T14:42:37;102793.31;;;16.90;49.64
26839;BME280;40088;51.214;6.786;2023-02-14T14:52:42;102789.56;;;16.91;49.60
26839;BME280;40088;51.214;6.786;2023-02-14T15:02:54;102779.53;;;16.90;49.58
26839;BME280;40088;51.214;6.786;2023-02-14T15:12:56;102763.03;;;16.90;49.57
26839;BME280;40088;51.214;6.786;2023-02-14T15:23:21;102749.13;;;16.91;49.56
26839;BME280;40088;51.214;6.786;2023-02-14T15:33:22;102752.91;;;16.71;50.28
26839;BME280;40088;51.214;6.786;2023-02-14T15:43:29;102752.31;;;16.87;49.90
26839;BME280;40088;51.214;6.786;2023-02-14T15:53:39;102748.38;;;16.89;49.85
26839;BME280;40088;51.214;6.786;2023-02-14T16:03:41;102753.88;;;16.89;49.94
26839;BME280;40088;51.214;6.786;2023-02-14T16:13:48;102760.25;;;16.90;49.94
26839;BME280;40088;51.214;6.786;2023-02-14T16:34:13;102756.53;;;16.91;49.98
26839;BME280;40088;51.214;6.786;2023-02-14T16:44:16;102763.91;;;16.90;50.03
26839;BME280;40088;51.214;6.786;2023-02-14T16:54:18;102770.28;;;16.91;49.93
26839;BME280;40088;51.214;6.786;2023-02-14T17:04:19;102768.41;;;16.91;49.99
26839;BME280;40088;51.214;6.786;2023-02-14T17:14:23;102771.00;;;16.93;49.79
26839;BME280;40088;51.214;6.786;2023-02-14T17:24:26;102768.41;;;16.91;49.86
26839;BME280;40088;51.214;6.786;2023-02-14T17:34:31;102783.19;;;16.90;50.24
26839;BME280;40088;51.214;6.786;2023-02-14T17:44:31;102799.56;;;16.92;49.85
26839;BME280;40088;51.214;6.786;2023-02-14T17:54:36;102808.69;;;16.92;49.84
26839;BME280;40088;51.214;6.786;2023-02-14T18:04:36;102794.06;;;16.92;50.04
26839;BME280;40088;51.214;6.786;2023-02-14T18:14:37;102796.81;;;16.92;49.95
26839;BME280;40088;51.214;6.786;2023-02-14T18:24:37;102792.16;;;16.92;49.97
26839;BME280;40088;51.214;6.786;2023-02-14T18:34:38;102783.03;;;16.92;49.83
26839;BME280;40088;51.214;6.786;2023-02-14T18:44:38;102777.38;;;16.93;50.00
26839;BME280;40088;51.214;6.786;2023-02-14T18:54:38;102769.09;;;16.93;49.88
26839;BME280;40088;51.214;6.786;2023-02-14T19:04:39;102756.22;;;16.94;49.85
26839;BME280;40088;51.214;6.786;2023-02-14T19:14:39;102759.97;;;16.93;49.47
26839;BME280;40088;51.214;6.786;2023-02-14T19:24:39;102748.97;;;16.93;49.98
26839;BME280;40088;51.214;6.786;2023-02-14T19:34:39;102740.72;;;16.93;49.97
26839;BME280;40088;51.214;6.786;2023-02-14T19:44:40;102743.47;;;16.93;49.90
26839;BME280;40088;51.214;6.786;2023-02-14T19:54:40;102726.94;;;16.93;49.77
26839;BME280;40088;51.214;6.786;2023-02-14T20:04:41;102726.94;;;16.93;49.96
26839;BME280;40088;51.214;6.786;2023-02-14T20:14:42;102712.16;;;16.94;49.84
26839;BME280;40088;51.214;6.786;2023-02-14T20:24:42;102710.41;;;16.93;49.82
26839;BME280;40088;51.214;6.786;2023-02-14T20:34:43;102707.66;;;16.93;49.79
26839;BME280;40088;51.214;6.786;2023-02-14T20:44:44;102701.13;;;16.94;49.84
26839;BME280;40088;51.214;6.786;2023-02-14T20:54:44;102705.78;;;16.93;49.67
26839;BME280;40088;51.214;6.786;2023-02-14T21:04:44;102702.16;;;16.93;49.77
26839;BME280;40088;51.214;6.786;2023-02-14T21:14:45;102712.16;;;16.94;49.73
26839;BME280;40088;51.214;6.786;2023-02-14T21:24:45;102691.84;;;16.95;49.64
26839;BME280;40088;51.214;6.786;2023-02-14T21:34:46;102696.50;;;16.95;49.60
26839;BME280;40088;51.214;6.786;2023-02-14T21:44:46;102685.47;;;16.95;49.83
26839;BME280;40088;51.214;6.786;2023-02-14T21:55:05;102693.59;;;16.96;49.55
26839;BME280;40088;51.214;6.786;2023-02-14T22:05:06;102680.81;;;16.95;49.51
26839;BME280;40088;51.214;6.786;2023-02-14T22:15:07;102677.22;;;16.95;49.57
26839;BME280;40088;51.214;6.786;2023-02-14T22:25:08;102676.22;;;16.96;49.45
26839;BME280;40088;51.214;6.786;2023-02-14T22:35:08;102674.34;;;16.96;49.47
26839;BME280;40088;51.214;6.786;2023-02-14T22:45:09;102658.78;;;16.95;49.46
26839;BME280;40088;51.214;6.786;2023-02-14T22:55:09;102662.44;;;16.96;49.56
26839;BME280;40088;51.214;6.786;2023-02-14T23:05:09;102676.34;;;16.94;49.34
26839;BME280;40088;51.214;6.786;2023-02-14T23:15:09;102662.56;;;16.94;49.49
26839;BME280;40088;51.214;6.786;2023-02-14T23:25:28;102659.97;;;16.92;49.31
26839;BME280;40088;51.214;6.786;2023-02-14T23:35:29;102663.44;;;16.95;49.44
26839;BME280;40088;51.214;6.786;2023-02-14T23:45:29;102647.94;;;16.93;49.27
26839;BME280;40088;51.214;6.786;2023-02-14T23:55:35;102647.94;;;16.93;49.24
